sensor_id;sensor_type;location;lat;lon;timestamp;pressure;altitude;pressure_sealevel;temperature
79148;BMP280;68562;51.600;6.524;2023-05-10T00:00:00;1007.0;;;17.0
79148;BMP280;68562;51.600;6.524;2023-05-10T00:05:00;1007.0;;;16.9
79148;BMP280;68562;51.600;6.524;2023-05-10T00:10:00;1007.0;;;17.0
79148;BMP280;68562;51.600;6.524;2023-05-10T00:15:00;1007.0;;;16.9
79148;BMP280;68562;51.600;6.524;2023-05-10T00:20:00;1007.0;;;16.9
79148;BMP280;68562;51.600;6.524;2023-05-10T00:25:00;1007.0;;;16.9
79148;BMP280;68562;51.600;6.524;2023-05-10T00:30:00;1007.0;;;16.9
79148;BMP280;68562;51.600;6.524;2023-05-10T00:35:00;1007.0;;;16.9
79148;BMP280;68562;51.600;6.524;2023-05-10T00:40:00;1006.9;;;16.9
79148;BMP280;68562;51.600;6.524;2023-05-10T00:45:00;1007.0;;;16.8
79148;BMP280;68562;51.600;6.524;2023-05-10T00:50:00;1007.0;;;16.8
79148;BMP280;68562;51.600;6.524;2023-05-10T00:55:00;1007.0;;;16.8
79148;BMP280;68562;51.600;6.524;2023-05-10T01:00:01;1007.0;;;16.8
79148;BMP280;68562;51.600;6.524;2023-05-10T01:05:01;1007.0;;;16.7
79148;BMP280;68562;51.600;6.524;2023-05-10T01:10:00;1007.0;;;16.7
79148;BMP280;68562;51.600;6.524;2023-05-10T01:15:00;1007.0;;;16.6
79148;BMP280;68562;51.600;6.524;2023-05-10T01:20:00;1007.0;;;16.6
79148;BMP280;68562;51.600;6.524;2023-05-10T01:25:11;1007.0;;;16.6
79148;BMP280;68562;51.600;6.524;2023-05-10T01:35:03;1007.0;;;16.5
79148;BMP280;68562;51.600;6.524;2023-05-10T01:40:08;1007.1;;;16.5
79148;BMP280;68562;51.600;6.524;2023-05-10T01:45:07;1007.0;;;16.5
79148;BMP280;68562;51.600;6.524;2023-05-10T01:50:03;1007.1;;;16.5
79148;BMP280;68562;51.600;6.524;2023-05-10T01:55:02;1007.1;;;16.5
79148;BMP280;68562;51.600;6.524;2023-05-10T02:00:02;1007.0;;;16.5
79148;BMP280;68562;51.600;6.524;2023-05-10T02:05:00;1007.0;;;16.6
79148;BMP280;68562;51.600;6.524;2023-05-10T02:10:01;1007.0;;;16.5
79148;BMP280;68562;51.600;6.524;2023-05-10T02:15:02;1007.1;;;16.5
79148;BMP280;68562;51.600;6.524;2023-05-10T02:20:01;1007.1;;;16.5
79148;BMP280;68562;51.600;6.524;2023-05-10T02:25:00;1007.2;;;16.5
79148;BMP280;68562;51.600;6.524;2023-05-10T02:30:00;1007.2;;;16.5
79148;BMP280;68562;51.600;6.524;2023-05-10T02:35:01;1007.2;;;16.5
79148;BMP280;68562;51.600;6.524;2023-05-10T02:40:01;1007.2;;;16.4
79148;BMP280;68562;51.600;6.524;2023-05-10T02:45:02;1007.2;;;16.4
79148;BMP280;68562;51.600;6.524;2023-05-10T02:50:00;1007.2;;;16.4
79148;BMP280;68562;51.600;6.524;2023-05-10T02:55:01;1007.2;;;16.4
79148;BMP280;68562;51.600;6.524;2023-05-10T03:00:00;1007.2;;;16.4
79148;BMP280;68562;51.600;6.524;2023-05-10T03:05:00;1007.3;;;16.5
79148;BMP280;68562;51.600;6.524;2023-05-10T03:10:00;1007.2;;;16.5
79148;BMP280;68562;51.600;6.524;2023-05-10T03:15:04;1007.2;;;16.5
79148;BMP280;68562;51.600;6.524;2023-05-10T03:20:04;1007.3;;;16.5
79148;BMP280;68562;51.600;6.524;2023-05-10T03:25:04;1007.3;;;16.5
79148;BMP280;68562;51.600;6.524;2023-05-10T03:30:01;1007.4;;;16.5
79148;BMP280;68562;51.600;6.524;2023-05-10T03:35:00;1007.5;;;16.6
79148;BMP280;68562;51.600;6.524;2023-05-10T03:40:00;1007.5;;;16.5
79148;BMP280;68562;51.600;6.524;2023-05-10T03:45:00;1007.5;;;16.5
79148;BMP280;68562;51.600;6.524;2023-05-10T03:50:00;1007.6;;;16.5
79148;BMP280;68562;51.600;6.524;2023-05-10T03:55:00;1007.5;;;16.5
79148;BMP280;68562;51.600;6.524;2023-05-10T04:00:00;1007.5;;;16.4
79148;BMP280;68562;51.600;6.524;2023-05-10T04:05:00;1007.6;;;16.4
79148;BMP280;68562;51.600;6.524;2023-05-10T04:10:00;1007.6;;;16.4
79148;BMP280;68562;51.600;6.524;2023-05-10T04:15:00;1007.6;;;16.4
79148;BMP280;68562;51.600;6.524;2023-05-10T04:20:00;1007.6;;;16.4
79148;BMP280;68562;51.600;6.524;2023-05-10T04:25:00;1007.6;;;16.4
79148;BMP280;68562;51.600;6.524;2023-05-10T04:30:00;1007.6;;;16.4
79148;BMP280;68562;51.600;6.524;2023-05-10T04:35:00;1007.7;;;16.5
79148;BMP280;68562;51.600;6.524;2023-05-10T04:40:00;1007.7;;;16.6
79148;BMP280;68562;51.600;6.524;2023-05-10T04:45:00;1007.8;;;16.6
79148;BMP280;68562;51.600;6.524;2023-05-10T04:50:00;1007.8;;;16.6
79148;BMP280;68562;51.600;6.524;2023-05-10T04:55:00;1007.8;;;16.6
79148;BMP280;68562;51.600;6.524;2023-05-10T05:00:00;1007.8;;;16.6
79148;BMP280;68562;51.600;6.524;2023-05-10T05:05:00;1007.8;;;16.6
79148;BMP280;68562;51.600;6.524;2023-05-10T05:10:00;1007.8;;;16.7
79148;BMP280;68562;51.600;6.524;2023-05-10T05:15:00;1007.9;;;16.8
79148;BMP280;68562;51.600;6.524;2023-05-10T05:20:00;1008.0;;;16.8
79148;BMP280;68562;51.600;6.524;2023-05-10T05:25:00;1008.0;;;16.8
79148;BMP280;68562;51.600;6.524;2023-05-10T05:30:00;1008.0;;;16.8
79148;BMP280;68562;51.600;6.524;2023-05-10T05:35:00;1008.1;;;16.9
79148;BMP280;68562;51.600;6.524;2023-05-10T05:40:00;1008.1;;;16.8
79148;BMP280;68562;51.600;6.524;2023-05-10T05:45:00;1008.2;;;16.9
79148;BMP280;68562;51.600;6.524;2023-05-10T05:50:00;1008.1;;;16.9
79148;BMP280;68562;51.600;6.524;2023-05-10T05:55:00;1008.2;;;16.9
79148;BMP280;68562;51.600;6.524;2023-05-10T06:00:00;1008.2;;;17.0
79148;BMP280;68562;51.600;6.524;2023-05-10T06:05:00;1008.3;;;17.0
79148;BMP280;68562;51.600;6.524;2023-05-10T06:10:00;1008.4;;;17.0
79148;BMP280;68562;51.600;6.524;2023-05-10T06:15:00;1008.4;;;17.0
79148;BMP280;68562;51.600;6.524;2023-05-10T06:20:00;1008.5;;;17.1
79148;BMP280;68562;51.600;6.524;2023-05-10T06:25:00;1008.4;;;17.1
79148;BMP280;68562;51.600;6.524;2023-05-10T06:30:00;1008.4;;;17.2
79148;BMP280;68562;51.600;6.524;2023-05-10T06:35:00;1008.5;;;17.3
79148;BMP280;68562;51.600;6.524;2023-05-10T06:40:00;1008.6;;;17.4
79148;BMP280;68562;51.600;6.524;2023-05-10T06:45:00;1008.6;;;17.4
79148;BMP280;68562;51.600;6.524;2023-05-10T06:50:00;1008.6;;;17.4
79148;BMP280;68562;51.600;6.524;2023-05-10T06:55:00;1008.7;;;17.4
79148;BMP280;68562;51.600;6.524;2023-05-10T07:00:00;1008.7;;;17.5
79148;BMP280;68562;51.600;6.524;2023-05-10T07:05:00;1008.7;;;17.5
79148;BMP280;68562;51.600;6.524;2023-05-10T07:10:00;1008.7;;;17.5
79148;BMP280;68562;51.600;6.524;2023-05-10T07:15:00;1008.7;;;17.6
79148;BMP280;68562;51.600;6.524;2023-05-10T07:20:00;1008.8;;;17.7
79148;BMP280;68562;51.600;6.524;2023-05-10T07:25:00;1008.8;;;17.7
79148;BMP280;68562;51.600;6.524;2023-05-10T07:30:00;1008.8;;;17.8
79148;BMP280;68562;51.600;6.524;2023-05-10T07:35:00;1008.8;;;17.8
79148;BMP280;68562;51.600;6.524;2023-05-10T07:40:00;1008.8;;;18.0
79148;BMP280;68562;51.600;6.524;2023-05-10T07:45:00;1008.8;;;18.0
79148;BMP280;68562;51.600;6.524;2023-05-10T07:50:00;1008.8;;;18.0
79148;BMP280;68562;51.600;6.524;2023-05-10T07:55:00;1008.9;;;18.0
79148;BMP280;68562;51.600;6.524;2023-05-10T08:00:00;1008.9;;;18.2
79148;BMP280;68562;51.600;6.524;2023-05-10T08:05:00;1008.9;;;18.5
79148;BMP280;68562;51.600;6.524;2023-05-10T08:10:00;1009.0;;;18.7
79148;BMP280;68562;51.600;6.524;2023-05-10T08:15:00;1009.1;;;18.8
79148;BMP280;68562;51.600;6.524;2023-05-10T08:20:00;1009.1;;;18.9
79148;BMP280;68562;51.600;6.524;2023-05-10T08:25:00;1009.2;;;19.0
79148;BMP280;68562;51.600;6.524;2023-05-10T08:30:00;1009.2;;;18.9
79148;BMP280;68562;51.600;6.524;2023-05-10T08:35:00;1009.3;;;18.9
79148;BMP280;68562;51.600;6.524;2023-05-10T08:40:00;1009.3;;;18.7
79148;BMP280;68562;51.600;6.524;2023-05-10T08:45:01;1009.3;;;18.4
79148;BMP280;68562;51.600;6.524;2023-05-10T08:50:02;1009.4;;;18.5
79148;BMP280;68562;51.600;6.524;2023-05-10T08:55:00;1009.5;;;18.4
79148;BMP280;68562;51.600;6.524;2023-05-10T09:00:00;1009.6;;;18.4
79148;BMP280;68562;51.600;6.524;2023-05-10T09:05:00;1009.7;;;18.4
79148;BMP280;68562;51.600;6.524;2023-05-10T09:10:00;1009.7;;;18.4
79148;BMP280;68562;51.600;6.524;2023-05-10T09:15:01;1009.9;;;18.3
79148;BMP280;68562;51.600;6.524;2023-05-10T09:20:01;1009.8;;;18.3
79148;BMP280;68562;51.600;6.524;2023-05-10T09:25:06;1009.9;;;18.4
79148;BMP280;68562;51.600;6.524;2023-05-10T09:30:00;1009.9;;;18.5
79148;BMP280;68562;51.600;6.524;2023-05-10T09:35:06;1009.9;;;18.5
79148;BMP280;68562;51.600;6.524;2023-05-10T09:40:00;1009.9;;;18.7
79148;BMP280;68562;51.600;6.524;2023-05-10T09:45:01;1010.0;;;18.7
79148;BMP280;68562;51.600;6.524;2023-05-10T09:50:00;1010.1;;;18.7
79148;BMP280;68562;51.600;6.524;2023-05-10T09:55:00;1010.1;;;18.7
79148;BMP280;68562;51.600;6.524;2023-05-10T10:00:00;1010.2;;;18.7
79148;BMP280;68562;51.600;6.524;2023-05-10T10:05:01;1010.1;;;18.8
79148;BMP280;68562;51.600;6.524;2023-05-10T10:10:00;1010.1;;;19.0
79148;BMP280;68562;51.600;6.524;2023-05-10T10:15:00;1010.1;;;19.2
79148;BMP280;68562;51.600;6.524;2023-05-10T10:20:02;1010.1;;;19.2
79148;BMP280;68562;51.600;6.524;2023-05-10T10:25:00;1010.1;;;19.2
79148;BMP280;68562;51.600;6.524;2023-05-10T10:30:04;1010.2;;;19.1
79148;BMP280;68562;51.600;6.524;2023-05-10T10:35:00;1010.2;;;18.9
79148;BMP280;68562;51.600;6.524;2023-05-10T10:40:00;1010.3;;;18.7
79148;BMP280;68562;51.600;6.524;2023-05-10T10:45:12;1010.3;;;18.5
79148;BMP280;68562;51.600;6.524;2023-05-10T10:50:04;1010.3;;;18.4
79148;BMP280;68562;51.600;6.524;2023-05-10T10:55:02;1010.3;;;18.4
79148;BMP280;68562;51.600;6.524;2023-05-10T11:10:03;1010.4;;;18.3
79148;BMP280;68562;51.600;6.524;2023-05-10T11:15:00;1010.4;;;18.5
79148;BMP280;68562;51.600;6.524;2023-05-10T11:20:08;1010.4;;;18.7
79148;BMP280;68562;51.600;6.524;2023-05-10T11:25:00;1010.4;;;18.8
79148;BMP280;68562;51.600;6.524;2023-05-10T11:30:00;1010.4;;;19.0
79148;BMP280;68562;51.600;6.524;2023-05-10T11:35:06;1010.4;;;19.0
79148;BMP280;68562;51.600;6.524;2023-05-10T11:40:00;1010.4;;;19.1
79148;BMP280;68562;51.600;6.524;2023-05-10T11:45:00;1010.4;;;19.5
79148;BMP280;68562;51.600;6.524;2023-05-10T11:50:00;1010.4;;;19.9
79148;BMP280;68562;51.600;6.524;2023-05-10T11:55:00;1010.4;;;20.3
79148;BMP280;68562;51.600;6.524;2023-05-10T12:00:00;1010.4;;;20.5
79148;BMP280;68562;51.600;6.524;2023-05-10T12:05:00;1010.4;;;20.6
79148;BMP280;68562;51.600;6.524;2023-05-10T12:10:05;1010.5;;;20.8
79148;BMP280;68562;51.600;6.524;2023-05-10T12:15:01;1010.5;;;20.9
79148;BMP280;68562;51.600;6.524;2023-05-10T12:20:13;1010.5;;;21.1
79148;BMP280;68562;51.600;6.524;2023-05-10T12:25:00;1010.5;;;21.4
79148;BMP280;68562;51.600;6.524;2023-05-10T12:30:00;1010.4;;;21.6
79148;BMP280;68562;51.600;6.524;2023-05-10T12:35:00;1010.4;;;22.1
79148;BMP280;68562;51.600;6.524;2023-05-10T12:40:00;1010.5;;;22.3
79148;BMP280;68562;51.600;6.524;2023-05-10T12:45:00;1010.5;;;22.3
79148;BMP280;68562;51.600;6.524;2023-05-10T12:50:01;1010.6;;;22.1
79148;BMP280;68562;51.600;6.524;2023-05-10T12:55:00;1010.6;;;21.9
79148;BMP280;68562;51.600;6.524;2023-05-10T13:00:00;1010.6;;;21.9
79148;BMP280;68562;51.600;6.524;2023-05-10T13:05:00;1010.6;;;22.0
79148;BMP280;68562;51.600;6.524;2023-05-10T13:10:00;1010.6;;;22.2
79148;BMP280;68562;51.600;6.524;2023-05-10T13:15:00;1010.7;;;21.9
79148;BMP280;68562;51.600;6.524;2023-05-10T13:20:00;1010.7;;;21.6
79148;BMP280;68562;51.600;6.524;2023-05-10T13:25:00;1010.7;;;21.4
79148;BMP280;68562;51.600;6.524;2023-05-10T13:30:01;1010.8;;;21.4
79148;BMP280;68562;51.600;6.524;2023-05-10T13:35:00;1010.8;;;21.4
79148;BMP280;68562;51.600;6.524;2023-05-10T13:40:00;1010.8;;;21.7
79148;BMP280;68562;51.600;6.524;2023-05-10T13:45:00;1010.7;;;22.2
79148;BMP280;68562;51.600;6.524;2023-05-10T13:50:00;1010.7;;;22.7
79148;BMP280;68562;51.600;6.524;2023-05-10T13:55:00;1010.7;;;23.1
79148;BMP280;68562;51.600;6.524;2023-05-10T14:00:00;1010.7;;;23.3
79148;BMP280;68562;51.600;6.524;2023-05-10T14:05:00;1010.6;;;23.2
79148;BMP280;68562;51.600;6.524;2023-05-10T14:10:00;1010.7;;;23.1
79148;BMP280;68562;51.600;6.524;2023-05-10T14:15:00;1010.6;;;23.0
79148;BMP280;68562;51.600;6.524;2023-05-10T14:20:00;1010.7;;;22.8
79148;BMP280;68562;51.600;6.524;2023-05-10T14:25:00;1010.7;;;22.7
79148;BMP280;68562;51.600;6.524;2023-05-10T14:30:00;1010.7;;;22.4
79148;BMP280;68562;51.600;6.524;2023-05-10T14:35:00;1010.8;;;22.3
79148;BMP280;68562;51.600;6.524;2023-05-10T14:40:00;1010.9;;;22.1
79148;BMP280;68562;51.600;6.524;2023-05-10T14:45:00;1010.9;;;21.5
79148;BMP280;68562;51.600;6.524;2023-05-10T14:50:00;1011.0;;;21.0
79148;BMP280;68562;51.600;6.524;2023-05-10T14:55:00;1010.9;;;20.6
79148;BMP280;68562;51.600;6.524;2023-05-10T15:00:00;1010.9;;;20.3
79148;BMP280;68562;51.600;6.524;2023-05-10T15:05:00;1010.8;;;20.1
79148;BMP280;68562;51.600;6.524;2023-05-10T15:10:00;1010.8;;;19.9
79148;BMP280;68562;51.600;6.524;2023-05-10T15:15:00;1010.8;;;19.7
79148;BMP280;68562;51.600;6.524;2023-05-10T15:20:00;1010.9;;;19.6
79148;BMP280;68562;51.600;6.524;2023-05-10T15:25:00;1011.0;;;19.5
79148;BMP280;68562;51.600;6.524;2023-05-10T15:30:00;1011.0;;;19.6
79148;BMP280;68562;51.600;6.524;2023-05-10T15:35:00;1011.1;;;19.8
79148;BMP280;68562;51.600;6.524;2023-05-10T15:40:00;1011.1;;;19.9
79148;BMP280;68562;51.600;6.524;2023-05-10T15:45:00;1011.2;;;19.8
79148;BMP280;68562;51.600;6.524;2023-05-10T15:50:00;1011.2;;;19.9
79148;BMP280;68562;51.600;6.524;2023-05-10T15:55:00;1011.2;;;19.9
79148;BMP280;68562;51.600;6.524;2023-05-10T16:00:00;1011.2;;;20.0
79148;BMP280;68562;51.600;6.524;2023-05-10T16:05:00;1011.2;;;20.3
79148;BMP280;68562;51.600;6.524;2023-05-10T16:10:00;1011.3;;;20.5
79148;BMP280;68562;51.600;6.524;2023-05-10T16:15:00;1011.3;;;20.6
79148;BMP280;68562;51.600;6.524;2023-05-10T16:20:00;1011.3;;;20.5
79148;BMP280;68562;51.600;6.524;2023-05-10T16:25:00;1011.4;;;20.6
79148;BMP280;68562;51.600;6.524;2023-05-10T16:30:00;1011.4;;;20.4
79148;BMP280;68562;51.600;6.524;2023-05-10T16:35:00;1011.4;;;20.3
79148;BMP280;68562;51.600;6.524;2023-05-10T16:40:00;1011.4;;;20.1
79148;BMP280;68562;51.600;6.524;2023-05-10T16:45:00;1011.5;;;20.0
79148;BMP280;68562;51.600;6.524;2023-05-10T16:50:00;1011.6;;;19.8
79148;BMP280;68562;51.600;6.524;2023-05-10T16:55:00;1011.6;;;19.7
79148;BMP280;68562;51.600;6.524;2023-05-10T17:00:00;1011.6;;;19.6
79148;BMP280;68562;51.600;6.524;2023-05-10T17:05:00;1011.6;;;19.5
79148;BMP280;68562;51.600;6.524;2023-05-10T17:10:00;1011.7;;;19.4
79148;BMP280;68562;51.600;6.524;2023-05-10T17:15:00;1011.7;;;19.4
79148;BMP280;68562;51.600;6.524;2023-05-10T17:20:00;1011.7;;;19.3
79148;BMP280;68562;51.600;6.524;2023-05-10T17:25:00;1011.8;;;19.2
79148;BMP280;68562;51.600;6.524;2023-05-10T17:30:00;1011.7;;;19.1
79148;BMP280;68562;51.600;6.524;2023-05-10T17:35:01;1011.8;;;19.1
79148;BMP280;68562;51.600;6.524;2023-05-10T17:40:00;1011.8;;;19.0
79148;BMP280;68562;51.600;6.524;2023-05-10T17:45:00;1011.8;;;18.9
79148;BMP280;68562;51.600;6.524;2023-05-10T17:50:00;1011.8;;;18.8
79148;BMP280;68562;51.600;6.524;2023-05-10T17:55:00;1011.7;;;18.7
79148;BMP280;68562;51.600;6.524;2023-05-10T18:00:00;1011.8;;;18.7
79148;BMP280;68562;51.600;6.524;2023-05-10T18:05:00;1011.7;;;18.8
79148;BMP280;68562;51.600;6.524;2023-05-10T18:10:00;1011.8;;;18.7
79148;BMP280;68562;51.600;6.524;2023-05-10T18:15:00;1011.9;;;18.6
79148;BMP280;68562;51.600;6.524;2023-05-10T18:20:00;1011.9;;;18.5
79148;BMP280;68562;51.600;6.524;2023-05-10T18:25:00;1011.9;;;18.5
79148;BMP280;68562;51.600;6.524;2023-05-10T18:30:00;1011.9;;;18.4
79148;BMP280;68562;51.600;6.524;2023-05-10T18:35:00;1011.9;;;18.3
79148;BMP280;68562;51.600;6.524;2023-05-10T18:40:00;1012.0;;;18.3
79148;BMP280;68562;51.600;6.524;2023-05-10T18:45:00;1012.1;;;18.3
79148;BMP280;68562;51.600;6.524;2023-05-10T18:50:02;1012.1;;;18.3
79148;BMP280;68562;51.600;6.524;2023-05-10T18:55:00;1012.2;;;18.3
79148;BMP280;68562;51.600;6.524;2023-05-10T19:00:00;1012.3;;;18.3
79148;BMP280;68562;51.600;6.524;2023-05-10T19:05:00;1012.3;;;18.3
79148;BMP280;68562;51.600;6.524;2023-05-10T19:10:00;1012.2;;;18.3
79148;BMP280;68562;51.600;6.524;2023-05-10T19:15:00;1012.2;;;18.3
79148;BMP280;68562;51.600;6.524;2023-05-10T19:20:00;1012.3;;;18.3
79148;BMP280;68562;51.600;6.524;2023-05-10T19:25:00;1012.4;;;18.3
79148;BMP280;68562;51.600;6.524;2023-05-10T19:30:00;1012.4;;;18.3
79148;BMP280;68562;51.600;6.524;2023-05-10T19:35:00;1012.4;;;18.3
79148;BMP280;68562;51.600;6.524;2023-05-10T19:40:00;1012.4;;;18.3
79148;BMP280;68562;51.600;6.524;2023-05-10T19:45:00;1012.4;;;18.2
79148;BMP280;68562;51.600;6.524;2023-05-10T19:50:00;1012.5;;;18.2
79148;BMP280;68562;51.600;6.524;2023-05-10T19:55:00;1012.5;;;18.2
79148;BMP280;68562;51.600;6.524;2023-05-10T20:00:00;1012.5;;;18.2
79148;BMP280;68562;51.600;6.524;2023-05-10T20:05:00;1012.5;;;18.1
79148;BMP280;68562;51.600;6.524;2023-05-10T20:10:00;1012.5;;;18.0
79148;BMP280;68562;51.600;6.524;2023-05-10T20:15:00;1012.4;;;18.0
79148;BMP280;68562;51.600;6.524;2023-05-10T20:20:00;1012.5;;;18.0
79148;BMP280;68562;51.600;6.524;2023-05-10T20:25:00;1012.5;;;17.9
79148;BMP280;68562;51.600;6.524;2023-05-10T20:30:00;1012.5;;;17.9
79148;BMP280;68562;51.600;6.524;2023-05-10T20:35:00;1012.5;;;17.8
79148;BMP280;68562;51.600;6.524;2023-05-10T20:40:00;1012.4;;;17.8
79148;BMP280;68562;51.600;6.524;2023-05-10T20:45:00;1012.4;;;17.8
79148;BMP280;68562;51.600;6.524;2023-05-10T20:50:00;1012.4;;;17.9
79148;BMP280;68562;51.600;6.524;2023-05-10T20:55:00;1012.4;;;17.8
79148;BMP280;68562;51.600;6.524;2023-05-10T21:00:00;1012.4;;;17.8
79148;BMP280;68562;51.600;6.524;2023-05-10T21:05:00;1012.5;;;17.7
79148;BMP280;68562;51.600;6.524;2023-05-10T21:10:00;1012.5;;;17.6
79148;BMP280;68562;51.600;6.524;2023-05-10T21:15:00;1012.4;;;17.6
79148;BMP280;68562;51.600;6.524;2023-05-10T21:20:00;1012.4;;;17.6
79148;BMP280;68562;51.600;6.524;2023-05-10T21:25:00;1012.5;;;17.5
79148;BMP280;68562;51.600;6.524;2023-05-10T21:30:00;1012.6;;;17.6
79148;BMP280;68562;51.600;6.524;2023-05-10T21:35:00;1012.6;;;17.6
79148;BMP280;68562;51.600;6.524;2023-05-10T21:40:00;1012.6;;;17.5
79148;BMP280;68562;51.600;6.524;2023-05-10T21:45:00;1012.7;;;17.5
79148;BMP280;68562;51.600;6.524;2023-05-10T21:50:00;1012.7;;;17.5
79148;BMP280;68562;51.600;6.524;2023-05-10T21:55:00;1012.7;;;17.5
79148;BMP280;68562;51.600;6.524;2023-05-10T22:00:00;1012.7;;;17.4
79148;BMP280;68562;51.600;6.524;2023-05-10T22:05:00;1012.7;;;17.5
79148;BMP280;68562;51.600;6.524;2023-05-10T22:10:00;1012.7;;;17.4
79148;BMP280;68562;51.600;6.524;2023-05-10T22:15:00;1012.7;;;17.4
79148;BMP280;68562;51.600;6.524;2023-05-10T22:20:01;1012.7;;;17.4
79148;BMP280;68562;51.600;6.524;2023-05-10T22:25:00;1012.7;;;17.4
79148;BMP280;68562;51.600;6.524;2023-05-10T22:30:00;1012.7;;;17.3
79148;BMP280;68562;51.600;6.524;2023-05-10T22:35:00;1012.7;;;17.3
79148;BMP280;68562;51.600;6.524;2023-05-10T22:40:00;1012.8;;;17.2
79148;BMP280;68562;51.600;6.524;2023-05-10T22:45:00;1012.8;;;17.2
79148;BMP280;68562;51.600;6.524;2023-05-10T22:50:00;1012.8;;;17.2
79148;BMP280;68562;51.600;6.524;2023-05-10T22:55:00;1012.8;;;17.2
79148;BMP280;68562;51.600;6.524;2023-05-10T23:00:01;1012.8;;;17.2
79148;BMP280;68562;51.600;6.524;2023-05-10T23:05:00;1012.8;;;17.2
79148;BMP280;68562;51.600;6.524;2023-05-10T23:10:00;1012.8;;;17.1
79148;BMP280;68562;51.600;6.524;2023-05-10T23:15:00;1012.8;;;17.2
79148;BMP280;68562;51.600;6.524;2023-05-10T23:20:00;1012.9;;;17.1
79148;BMP280;68562;51.600;6.524;2023-05-10T23:25:00;1012.8;;;17.1
79148;BMP280;68562;51.600;6.524;2023-05-10T23:30:00;1012.9;;;17.0
79148;BMP280;68562;51.600;6.524;2023-05-10T23:35:00;1012.9;;;17.0
79148;BMP280;68562;51.600;6.524;2023-05-10T23:40:00;1012.9;;;17.0
79148;BMP280;68562;51.600;6.524;2023-05-10T23:45:00;1012.9;;;17.0
79148;BMP280;68562;51.600;6.524;2023-05-10T23:50:00;1012.8;;;16.9
79148;BMP280;68562;51.600;6.524;2023-05-10T23:55:00;1012.8;;;17.0
